Peotone Weather

Nearby METAR Reports

 

KIGQ - Lansing, Illinois, USA
Distance from station: NE 19mi, 30km
Updated: Sun, 28-Nov-2021 8:35am CST
Clear
Clear
 Wind from WNW
Wind: WNW 13 mph , 20 km/h, Gust: 18 mph , 30 km/h
Temperature: 32°F , 0°C
Wind Chill: 22°F , -6°C
Dew Point: 25°F , -4°C
Humidity: 75%
Barometer: 30.01 inHg , 1016.3 hPa
Clouds: Clear
Visibility: 10 miles , 16 km
2021/11/28 14:35 KIGQ 281435Z AUTO 29011G16KT 10SM CLR 00/M04 A3001 RMK AO2 T10021043
KIKK - Kankakee, Illinois, USA
Distance from station: S 19mi, 30km
Updated: Sun, 28-Nov-2021 8:35am CST
Clear
Clear
 Wind from W
Wind: W 10 mph , 17 km/h
Temperature: 30°F , -1°C
Wind Chill: 21°F , -6°C
Dew Point: 27°F , -3°C
Humidity: 86%
Barometer: 30.05 inHg , 1017.6 hPa
Clouds: Clear
Visibility: 10 miles , 16 km
2021/11/28 14:35 KIKK 281435Z AUTO 28009KT 10SM CLR M01/M03 A3005 RMK AO2
 
KSJC - Joliet, Illinois, USA
Distance from station: WNW 24mi, 38km
Updated: Sun, 28-Nov-2021 7:53am CST
NOT Current
Few Clouds
Few Clouds
 Wind from SE
Wind: SE 5 mph , 7 km/h
Temperature: 46°F , 8°C
Wind Chill: 44°F , 7°C
Dew Point: 41°F , 5°C
Humidity: 82%
Barometer: 30.21 inHg , 1023 hPa
Clouds: Few Clouds
Visibility: 10 miles , 16 km
Cloud details: Few Clouds 1500 ft
2021/11/28 13:53 KSJC 281353Z 13004KT 10SM FEW015 08/05 A3021 RMK AO2 SLP228 T00780050
KLOT - Romeoville, Illinois, USA
Distance from station: NW 26mi, 41km
Updated: Sun, 28-Nov-2021 8:35am CST
Clear
Clear
 Wind from NW
Wind: NW 13 mph , 20 km/h
Temperature: 30°F , -1°C
Wind Chill: 20°F , -7°C
Dew Point: 27°F , -3°C
Humidity: 86%
Barometer: 30.03 inHg , 1016.9 hPa
Clouds: Clear
2021/11/28 14:35 KLOT 281435Z AUTO 31011KT CLR M01/M03 A3003 RMK AO2 T10071031 PWINO
 
KMDW - Midway Airport Chicago, Illinois, USA
Distance from station: N 31mi, 50km
Updated: Sun, 28-Nov-2021 7:53am CST
NOT Current
Few Clouds
Few Clouds
 Wind from WNW
Wind: WNW 9 mph , 15 km/h
Temperature: 30°F , -1°C
Wind Chill: 22°F , -6°C
Dew Point: 21°F , -6°C
Humidity: 69%
Barometer: 30.00 inHg , 1015.9 hPa
Clouds: Few Clouds
Visibility: 10 miles , 16 km
Cloud details: Few Clouds 2700 ft
2021/11/28 13:53 KMDW 281353Z 30008KT 10SM FEW027 M01/M06 A3000 RMK AO2 SLP169 T10061061 $
KC09 - Morris, Illinois, USA
Distance from station: W 34mi, 54km
Updated: Sun, 28-Nov-2021 8:35am CST
Clear
Clear
 Wind from WNW
Wind: WNW 8 mph , 13 km/h
Temperature: 30°F , -1°C
Wind Chill: 22°F , -6°C
Dew Point: 27°F , -3°C
Humidity: 86%
Barometer: 30.04 inHg , 1017.3 hPa
Clouds: Clear
Visibility: 10 miles , 16 km
2021/11/28 14:35 KC09 281435Z AUTO 29007KT 10SM CLR M01/M03 A3004 RMK AO2 T10121034

Metar display script from Saratoga-Weather.org